Time;durP1;ratioP1;P1;durP2;ratioP2;P2;SDS_P1;SDS_P2;PMS_P1;PMS_P2;Temp;Humidity;BMP_temperature;BMP_pressure;BME280_temperature;BME280_humidity;BME280_pressure;Samples;Min_cycle;Max_cycle;Signal;HPM_P1;HPM_P2
2021/12/27 00:00:50;;;;;;;5.57;2.67;;;1.30;99.90;;;;;;5085631;28;20240;-64
2021/12/27 00:03:17;;;;;;;7.03;3.10;;;1.30;99.90;;;;;;5079418;28;20261;-64
2021/12/27 00:05:44;;;;;;;7.97;3.27;;;1.30;99.90;;;;;;5065721;28;20273;-64
2021/12/27 00:08:11;;;;;;;6.20;3.03;;;1.30;99.90;;;;;;5064611;28;20209;-65
2021/12/27 00:10:38;;;;;;;6.73;2.97;;;1.30;99.90;;;;;;5065507;28;20198;-64
2021/12/27 00:13:07;;;;;;;7.70;2.80;;;1.30;99.90;;;;;;5064987;28;20308;-66
2021/12/27 00:15:35;;;;;;;6.60;2.57;;;1.40;99.90;;;;;;5065678;28;20213;-64
2021/12/27 00:18:02;;;;;;;9.57;3.37;;;1.40;99.90;;;;;;5065072;28;20205;-66
2021/12/27 00:20:29;;;;;;;8.17;3.30;;;1.30;99.90;;;;;;5065551;28;20256;-64
2021/12/27 00:22:56;;;;;;;8.37;3.27;;;1.30;99.90;;;;;;5064305;28;20285;-64
2021/12/27 00:25:23;;;;;;;6.57;2.73;;;1.30;99.90;;;;;;5064778;28;20309;-65
2021/12/27 00:27:50;;;;;;;7.57;3.00;;;1.30;99.90;;;;;;5064623;28;20289;-64
2021/12/27 00:30:18;;;;;;;7.60;3.30;;;1.30;99.90;;;;;;5065224;28;20213;-64
2021/12/27 00:32:46;;;;;;;7.63;3.43;;;1.40;99.90;;;;;;5064715;28;20213;-64
2021/12/27 00:35:14;;;;;;;6.00;2.87;;;1.40;99.90;;;;;;5064214;28;20229;-65
2021/12/27 00:37:42;;;;;;;6.13;2.97;;;1.40;99.90;;;;;;5064510;28;20208;-62
2021/12/27 00:40:11;;;;;;;5.97;2.83;;;1.40;99.90;;;;;;5064720;28;20269;-64
2021/12/27 00:42:38;;;;;;;11.57;4.23;;;1.50;99.90;;;;;;5064281;28;20304;-64
2021/12/27 00:45:06;;;;;;;7.63;3.30;;;1.50;99.90;;;;;;5065003;28;20237;-65
2021/12/27 00:47:33;;;;;;;4.97;2.83;;;1.40;99.90;;;;;;5065103;28;20201;-64
2021/12/27 00:50:01;;;;;;;7.63;3.30;;;1.40;99.90;;;;;;5064805;28;20265;-64
2021/12/27 00:52:28;;;;;;;4.13;3.07;;;1.40;99.90;;;;;;5065132;28;20265;-64
2021/12/27 00:54:55;;;;;;;5.70;2.40;;;1.40;99.90;;;;;;5063645;28;20655;-64
2021/12/27 00:57:22;;;;;;;5.30;2.73;;;1.40;99.90;;;;;;5064325;28;20273;-65
2021/12/27 00:59:48;;;;;;;6.47;3.00;;;1.40;99.90;;;;;;5064762;28;20205;-65
2021/12/27 01:02:15;;;;;;;3.43;2.20;;;1.40;99.90;;;;;;5064661;28;20249;-65
2021/12/27 01:04:42;;;;;;;6.60;2.80;;;1.40;99.90;;;;;;5064618;28;20273;-63
2021/12/27 01:07:10;;;;;;;9.43;4.13;;;1.40;99.90;;;;;;5064592;28;20240;-65
2021/12/27 01:09:51;;;;;;;7.60;3.40;;;1.40;99.90;;;;;;5063634;28;20201;-64
2021/12/27 01:12:31;;;;;;;5.07;3.00;;;1.40;99.90;;;;;;5075242;28;20205;-65
2021/12/27 01:15:45;;;;;;;5.80;3.20;;;1.40;99.90;;;;;;5084535;28;20180;-65
2021/12/27 01:17:58;;;;;;;9.23;3.33;;;1.40;99.90;;;;;;5083937;28;20209;-65
2021/12/27 01:20:26;;;;;;;8.70;3.07;;;1.30;99.90;;;;;;5084713;28;20225;-64
2021/12/27 01:22:55;;;;;;;5.53;2.40;;;1.30;99.90;;;;;;5083567;28;20225;-64
2021/12/27 01:25:22;;;;;;;5.23;2.70;;;1.30;99.90;;;;;;5084044;28;20205;-65
2021/12/27 01:27:51;;;;;;;2.47;1.53;;;1.40;99.90;;;;;;5083514;28;20292;-64
2021/12/27 01:30:19;;;;;;;6.27;2.60;;;1.40;99.90;;;;;;5084246;28;20205;-64
2021/12/27 01:32:50;;;;;;;7.77;3.30;;;1.40;99.90;;;;;;5084493;28;20372;-64
2021/12/27 01:35:18;;;;;;;5.30;2.50;;;1.40;99.90;;;;;;5084494;28;20239;-65
2021/12/27 01:37:46;;;;;;;5.23;3.23;;;1.40;99.90;;;;;;5083699;28;20296;-64
2021/12/27 01:40:15;;;;;;;4.73;2.87;;;1.40;99.90;;;;;;5083800;28;20260;-64
2021/12/27 01:43:00;;;;;;;3.77;2.17;;;1.40;99.90;;;;;;5083651;28;20242;-65
2021/12/27 01:45:28;;;;;;;7.50;3.17;;;1.40;99.90;;;;;;5085317;28;20213;-65
2021/12/27 01:47:55;;;;;;;6.57;2.37;;;1.40;99.90;;;;;;5087982;28;20207;-65
2021/12/27 01:50:22;;;;;;;4.80;2.40;;;1.40;99.90;;;;;;5088387;28;20232;-64
2021/12/27 01:52:49;;;;;;;4.30;2.33;;;1.40;99.90;;;;;;5087381;28;20289;-64
2021/12/27 01:55:17;;;;;;;5.77;2.93;;;1.40;99.90;;;;;;5087559;28;20211;-65
2021/12/27 01:57:44;;;;;;;5.53;2.43;;;1.40;99.90;;;;;;5087290;28;20702;-64
2021/12/27 02:00:12;;;;;;;5.10;2.70;;;1.40;99.90;;;;;;5087840;28;20229;-64
2021/12/27 02:02:39;;;;;;;6.20;2.40;;;1.40;99.90;;;;;;5087919;28;20228;-63
2021/12/27 02:05:06;;;;;;;4.37;2.10;;;1.50;99.90;;;;;;5088246;28;20197;-65
2021/12/27 02:07:33;;;;;;;6.07;2.37;;;1.50;99.90;;;;;;5087938;28;20242;-64
2021/12/27 02:10:02;;;;;;;6.70;2.70;;;1.50;99.90;;;;;;5087059;28;20371;-65
2021/12/27 02:12:31;;;;;;;4.80;2.83;;;1.50;99.90;;;;;;5087402;28;20201;-65
2021/12/27 02:14:58;;;;;;;3.23;1.73;;;1.50;99.90;;;;;;5087899;28;20201;-65
2021/12/27 02:17:25;;;;;;;6.63;2.47;;;1.50;99.90;;;;;;5087683;28;20209;-65
2021/12/27 02:19:54;;;;;;;3.57;2.30;;;1.50;99.90;;;;;;5087648;28;20225;-65
2021/12/27 02:22:22;;;;;;;4.43;2.43;;;1.50;99.90;;;;;;5087558;28;20217;-65
2021/12/27 02:24:49;;;;;;;4.17;2.80;;;1.40;99.90;;;;;;5086244;28;20205;-64
2021/12/27 02:27:17;;;;;;;3.60;2.13;;;1.40;99.90;;;;;;5086781;28;20262;-65
2021/12/27 02:29:44;;;;;;;2.90;1.90;;;1.40;99.90;;;;;;5087487;28;20232;-65
2021/12/27 02:32:11;;;;;;;5.20;2.43;;;1.50;99.90;;;;;;5087452;28;20223;-65
2021/12/27 02:34:38;;;;;;;4.50;2.20;;;1.50;99.90;;;;;;5087212;28;20228;-64
2021/12/27 02:37:06;;;;;;;3.10;1.87;;;1.50;99.90;;;;;;5087139;28;20211;-66
2021/12/27 02:39:34;;;;;;;3.07;1.83;;;1.50;99.90;;;;;;5086157;28;20794;-66
2021/12/27 02:42:00;;;;;;;5.20;2.27;;;1.40;99.90;;;;;;5086636;28;20215;-65
2021/12/27 02:44:27;;;;;;;3.63;2.03;;;1.40;99.90;;;;;;5087326;28;20224;-65
2021/12/27 02:46:54;;;;;;;1.83;1.23;;;1.40;99.90;;;;;;5087254;28;20213;-65
2021/12/27 02:49:21;;;;;;;2.47;1.90;;;1.50;99.90;;;;;;5087186;28;20704;-65
2021/12/27 02:51:48;;;;;;;4.53;2.50;;;1.50;99.90;;;;;;5086973;28;20201;-65
2021/12/27 02:54:17;;;;;;;3.73;2.03;;;1.50;99.90;;;;;;5085830;28;20228;-65
2021/12/27 02:56:44;;;;;;;5.97;1.80;;;1.40;99.90;;;;;;5085013;28;20288;-65
2021/12/27 02:59:10;;;;;;;2.73;1.67;;;1.50;99.90;;;;;;5086939;28;20264;-66
2021/12/27 03:01:37;;;;;;;4.17;1.43;;;1.50;99.90;;;;;;5086902;28;20228;-66
2021/12/27 03:04:04;;;;;;;2.97;1.80;;;1.50;99.90;;;;;;5086882;28;20248;-65
2021/12/27 03:06:31;;;;;;;3.67;2.23;;;1.50;99.90;;;;;;5086717;28;20204;-64
2021/12/27 03:08:58;;;;;;;4.43;1.70;;;1.50;99.90;;;;;;5086106;28;20288;-65
2021/12/27 03:11:26;;;;;;;2.23;1.70;;;1.50;99.90;;;;;;5086143;28;20259;-64
2021/12/27 03:13:53;;;;;;;3.40;2.13;;;1.50;99.90;;;;;;5086460;28;20759;-66
2021/12/27 03:16:22;;;;;;;2.77;1.40;;;1.50;99.90;;;;;;5086612;28;20220;-65
2021/12/27 03:18:51;;;;;;;3.67;1.83;;;1.50;99.90;;;;;;5086281;28;20235;-65
2021/12/27 03:21:18;;;;;;;4.73;1.63;;;1.50;99.90;;;;;;5086497;28;20567;-65
2021/12/27 03:23:47;;;;;;;4.00;1.87;;;1.40;99.90;;;;;;5085288;28;20223;-64
2021/12/27 03:26:14;;;;;;;2.83;1.50;;;1.40;99.90;;;;;;5085876;28;20577;-64
2021/12/27 03:28:44;;;;;;;1.73;1.23;;;1.40;99.90;;;;;;5086139;28;20205;-64
2021/12/27 03:31:12;;;;;;;4.03;2.53;;;1.50;99.90;;;;;;5086371;28;20274;-65
2021/12/27 03:33:39;;;;;;;2.70;1.43;;;1.50;99.90;;;;;;5086342;28;20229;-65
2021/12/27 03:36:08;;;;;;;3.87;1.80;;;1.50;99.90;;;;;;5086212;28;20236;-65
2021/12/27 03:38:38;;;;;;;3.00;1.80;;;1.40;99.90;;;;;;5084871;28;20228;-64
2021/12/27 03:41:07;;;;;;;4.23;1.87;;;1.40;99.90;;;;;;5085869;28;20680;-64
2021/12/27 03:43:34;;;;;;;2.47;1.67;;;1.40;99.90;;;;;;5085360;28;20303;-65
2021/12/27 03:46:02;;;;;;;4.67;1.93;;;1.40;99.90;;;;;;5085992;28;20302;-64
2021/12/27 03:48:29;;;;;;;3.93;1.80;;;1.50;99.90;;;;;;5085915;28;20280;-65
2021/12/27 03:50:56;;;;;;;4.00;1.67;;;1.60;99.90;;;;;;5085727;28;20208;-65
2021/12/27 03:53:23;;;;;;;4.27;1.80;;;1.60;99.90;;;;;;5084836;28;20216;-64
2021/12/27 03:55:50;;;;;;;2.63;1.70;;;1.60;99.90;;;;;;5086071;28;20269;-65
2021/12/27 03:58:26;;;;;;;3.07;1.63;;;1.60;99.90;;;;;;5085287;28;20268;-66
2021/12/27 04:01:03;;;;;;;3.80;1.93;;;1.60;99.90;;;;;;5085591;28;20213;-64
2021/12/27 04:03:32;;;;;;;3.03;1.83;;;1.60;99.90;;;;;;5085683;28;20675;-66
2021/12/27 04:05:59;;;;;;;3.20;1.80;;;1.50;99.90;;;;;;5085719;28;20693;-66
2021/12/27 04:08:27;;;;;;;3.40;1.27;;;1.40;99.90;;;;;;5084645;28;20232;-65
2021/12/27 04:10:54;;;;;;;2.83;1.70;;;1.40;99.90;;;;;;5085298;28;20205;-64
2021/12/27 04:13:22;;;;;;;3.00;1.60;;;1.50;99.90;;;;;;5085259;28;20250;-66
2021/12/27 04:15:49;;;;;;;5.30;2.40;;;1.50;99.90;;;;;;5085544;28;20259;-65
2021/12/27 04:18:17;;;;;;;3.47;1.90;;;1.50;99.90;;;;;;5085249;28;20205;-65
2021/12/27 04:20:45;;;;;;;2.83;1.47;;;1.60;99.90;;;;;;5085198;28;20205;-64
2021/12/27 04:23:13;;;;;;;4.90;2.50;;;1.50;99.90;;;;;;5084629;28;20235;-65
2021/12/27 04:25:40;;;;;;;2.33;1.53;;;1.50;99.90;;;;;;5084820;28;20655;-66
2021/12/27 04:28:06;;;;;;;4.13;1.67;;;1.60;99.90;;;;;;5084610;28;20299;-65
2021/12/27 04:30:33;;;;;;;4.10;2.23;;;1.60;99.90;;;;;;5085052;28;20276;-65
2021/12/27 04:33:00;;;;;;;2.43;1.73;;;1.60;99.90;;;;;;5084984;28;20193;-65
2021/12/27 04:35:27;;;;;;;2.93;1.73;;;1.50;99.90;;;;;;5085309;28;20303;-65
2021/12/27 04:37:56;;;;;;;2.57;1.70;;;1.40;99.90;;;;;;5083842;28;20212;-64
2021/12/27 04:40:24;;;;;;;2.47;1.80;;;1.40;99.90;;;;;;5084938;28;20212;-65
2021/12/27 04:42:54;;;;;;;3.27;1.90;;;1.40;99.90;;;;;;5084498;28;20227;-65
2021/12/27 04:45:21;;;;;;;3.83;2.47;;;1.40;99.90;;;;;;5085525;28;20208;-65
2021/12/27 04:47:48;;;;;;;3.13;1.53;;;1.40;99.90;;;;;;5084538;28;20292;-65
2021/12/27 04:50:16;;;;;;;2.87;1.80;;;1.40;99.90;;;;;;5084964;28;20205;-64
2021/12/27 04:52:45;;;;;;;4.03;1.63;;;1.40;99.90;;;;;;5084178;28;20211;-62
2021/12/27 04:55:13;;;;;;;3.57;2.10;;;1.50;99.90;;;;;;5084703;28;20201;-64
2021/12/27 04:57:40;;;;;;;4.43;1.83;;;1.50;99.90;;;;;;5082934;28;20197;-63
2021/12/27 05:00:08;;;;;;;4.40;2.20;;;1.60;99.90;;;;;;5084459;28;20280;-65
2021/12/27 05:02:35;;;;;;;3.57;2.47;;;1.50;99.90;;;;;;5084098;28;20200;-64
2021/12/27 05:05:02;;;;;;;2.77;1.93;;;1.50;99.90;;;;;;5084356;28;20195;-65
2021/12/27 05:07:29;;;;;;;2.87;1.50;;;1.40;99.90;;;;;;5083512;28;20197;-66
2021/12/27 05:09:56;;;;;;;1.90;1.27;;;1.40;99.90;;;;;;5080485;28;20200;-69
2021/12/27 05:12:24;;;;;;;2.93;1.53;;;1.50;99.90;;;;;;5083052;28;20288;-69
2021/12/27 05:14:51;;;;;;;2.70;1.50;;;1.50;99.90;;;;;;5082958;28;20636;-70
2021/12/27 05:17:17;;;;;;;3.77;1.87;;;1.40;99.90;;;;;;5083415;28;20575;-70
2021/12/27 05:19:44;;;;;;;2.43;1.40;;;1.40;99.90;;;;;;5082937;28;20189;-70
2021/12/27 05:22:11;;;;;;;4.30;2.30;;;1.40;99.90;;;;;;5088217;28;20543;-70
2021/12/27 05:24:38;;;;;;;3.17;1.63;;;1.40;99.90;;;;;;5086756;28;20770;-69
2021/12/27 05:27:05;;;;;;;3.00;1.83;;;1.50;99.90;;;;;;5087306;28;20244;-70
2021/12/27 05:29:33;;;;;;;4.40;2.30;;;1.50;99.90;;;;;;5087724;28;20203;-69
2021/12/27 05:32:01;;;;;;;5.83;1.93;;;1.60;99.90;;;;;;5087659;28;20268;-71
2021/12/27 05:34:29;;;;;;;3.23;1.73;;;1.60;99.90;;;;;;5087724;28;20260;-70
2021/12/27 05:36:56;;;;;;;4.43;2.70;;;1.60;99.90;;;;;;5087894;28;20197;-70
2021/12/27 05:39:23;;;;;;;5.33;1.93;;;1.50;99.90;;;;;;5086096;28;20296;-69
2021/12/27 05:41:50;;;;;;;4.03;2.10;;;1.50;99.90;;;;;;5087359;28;20197;-70
2021/12/27 05:44:18;;;;;;;3.43;2.00;;;1.40;99.90;;;;;;5087176;28;20304;-70
2021/12/27 05:46:46;;;;;;;3.30;1.90;;;1.30;99.90;;;;;;5087229;28;20211;-70
2021/12/27 05:49:14;;;;;;;3.63;1.83;;;1.30;99.90;;;;;;5087520;28;20201;-70
2021/12/27 05:51:43;;;;;;;4.47;1.37;;;1.30;99.90;;;;;;5087638;28;20197;-70
2021/12/27 05:54:10;;;;;;;4.80;1.63;;;1.40;99.90;;;;;;5086267;28;20217;-70
2021/12/27 05:56:37;;;;;;;2.23;1.37;;;1.40;99.90;;;;;;5086584;28;20543;-68
2021/12/27 05:59:04;;;;;;;3.03;1.80;;;1.50;99.90;;;;;;5086773;28;20722;-70
2021/12/27 06:01:31;;;;;;;3.03;1.67;;;1.40;99.90;;;;;;5087567;28;20288;-71
2021/12/27 06:03:59;;;;;;;3.90;1.90;;;1.40;99.90;;;;;;5087329;28;20304;-70
2021/12/27 06:06:27;;;;;;;4.43;1.70;;;1.40;99.90;;;;;;5087617;28;20287;-70
2021/12/27 06:08:54;;;;;;;2.20;2.00;;;1.40;99.90;;;;;;5086639;28;20219;-70
2021/12/27 06:11:21;;;;;;;3.57;1.70;;;1.40;99.90;;;;;;5087143;28;20292;-70
2021/12/27 06:13:48;;;;;;;4.17;2.33;;;1.40;99.90;;;;;;5087349;28;20231;-70
2021/12/27 06:16:15;;;;;;;6.87;1.90;;;1.40;99.90;;;;;;5087615;28;20205;-70
2021/12/27 06:18:42;;;;;;;4.87;1.83;;;1.40;99.90;;;;;;5087254;28;20220;-69
2021/12/27 06:21:10;;;;;;;2.93;1.33;;;1.50;99.90;;;;;;5086864;28;20292;-70
2021/12/27 06:23:37;;;;;;;2.00;1.80;;;1.50;99.90;;;;;;5086064;28;20300;-70
2021/12/27 06:26:04;;;;;;;2.67;1.77;;;1.60;99.90;;;;;;5086990;28;20535;-70
2021/12/27 06:28:32;;;;;;;3.33;1.93;;;1.60;99.90;;;;;;5086674;28;20224;-70
2021/12/27 06:30:59;;;;;;;2.77;1.43;;;1.60;99.90;;;;;;5087174;28;20193;-69
2021/12/27 06:33:26;;;;;;;1.97;1.70;;;1.70;99.90;;;;;;5086977;28;20189;-70
2021/12/27 06:35:52;;;;;;;1.80;1.53;;;1.70;99.90;;;;;;5087009;28;20193;-70
2021/12/27 06:38:21;;;;;;;2.77;1.77;;;1.70;99.90;;;;;;5085632;28;20221;-70
2021/12/27 06:40:49;;;;;;;2.90;1.40;;;1.70;99.90;;;;;;5086513;28;20197;-70
2021/12/27 06:43:16;;;;;;;3.80;1.73;;;1.70;99.90;;;;;;5086679;28;20277;-65
2021/12/27 06:45:43;;;;;;;4.67;1.73;;;1.60;99.90;;;;;;5087736;28;20211;-67
2021/12/27 06:48:10;;;;;;;3.47;1.83;;;1.50;99.90;;;;;;5086534;28;20201;-68
2021/12/27 06:50:37;;;;;;;3.07;1.53;;;1.60;99.90;;;;;;5086941;28;20276;-66
2021/12/27 06:53:04;;;;;;;4.73;1.50;;;1.60;99.90;;;;;;5086592;28;20201;-66
2021/12/27 06:55:32;;;;;;;4.30;1.90;;;1.70;99.90;;;;;;5086609;28;20714;-68
2021/12/27 06:57:59;;;;;;;4.90;2.33;;;1.70;99.90;;;;;;5085959;28;20308;-66
2021/12/27 07:00:26;;;;;;;4.60;2.10;;;1.70;99.90;;;;;;5087141;28;20717;-69
2021/12/27 07:02:53;;;;;;;3.37;2.17;;;1.70;99.90;;;;;;5086750;28;20618;-69
2021/12/27 07:05:20;;;;;;;1.33;1.23;;;1.70;99.90;;;;;;5086888;28;20285;-69
2021/12/27 07:07:47;;;;;;;4.40;2.30;;;1.70;99.90;;;;;;5086197;28;20209;-68
2021/12/27 07:10:16;;;;;;;4.57;2.00;;;1.80;99.90;;;;;;5086512;28;20252;-66
2021/12/27 07:12:45;;;;;;;2.80;1.93;;;1.70;99.90;;;;;;5085329;28;20197;-70
2021/12/27 07:15:12;;;;;;;2.83;1.60;;;1.70;99.90;;;;;;5083764;28;20263;-69
2021/12/27 07:17:38;;;;;;;1.37;1.10;;;1.70;99.90;;;;;;5086157;28;20205;-69
2021/12/27 07:20:06;;;;;;;1.70;1.33;;;1.70;99.90;;;;;;5086375;28;20197;-69
2021/12/27 07:22:33;;;;;;;3.43;1.80;;;1.70;99.90;;;;;;5083744;28;20586;-69
2021/12/27 07:25:00;;;;;;;1.70;1.37;;;1.70;99.90;;;;;;5084948;28;20324;-69
2021/12/27 07:27:27;;;;;;;2.07;1.67;;;1.80;99.90;;;;;;5085480;28;20201;-69
2021/12/27 07:29:56;;;;;;;2.63;1.60;;;1.80;99.90;;;;;;5086269;28;20204;-69
2021/12/27 07:32:22;;;;;;;2.93;1.63;;;1.90;99.90;;;;;;5086215;28;20274;-69
2021/12/27 07:34:50;;;;;;;1.40;1.30;;;1.90;99.90;;;;;;5085806;28;20199;-70
2021/12/27 07:37:17;;;;;;;1.33;1.17;;;2.00;99.90;;;;;;5085901;28;20197;-69
2021/12/27 07:39:44;;;;;;;1.70;1.17;;;2.00;99.90;;;;;;5084988;28;20588;-68
2021/12/27 07:42:11;;;;;;;2.00;1.07;;;2.10;99.90;;;;;;5085469;28;20650;-67
2021/12/27 07:44:38;;;;;;;1.20;0.83;;;2.10;99.90;;;;;;5085517;28;20235;-66
2021/12/27 07:47:07;;;;;;;1.30;0.90;;;2.10;99.90;;;;;;5086157;28;20273;-64
2021/12/27 07:49:33;;;;;;;1.70;1.13;;;2.10;99.90;;;;;;5086192;28;20205;-68
2021/12/27 07:52:01;;;;;;;3.17;1.40;;;2.20;99.90;;;;;;5085901;28;20224;-69
2021/12/27 07:54:27;;;;;;;1.33;1.13;;;2.20;99.90;;;;;;5084834;28;20194;-70
2021/12/27 07:56:54;;;;;;;3.27;1.77;;;2.20;99.90;;;;;;5084775;28;20232;-67
2021/12/27 07:59:21;;;;;;;1.27;1.10;;;2.20;99.90;;;;;;5085711;28;20477;-67
2021/12/27 08:01:48;;;;;;;1.50;1.27;;;2.20;99.90;;;;;;5085897;28;20243;-66
2021/12/27 08:04:16;;;;;;;2.27;1.70;;;2.20;99.90;;;;;;5085722;28;20280;-67
2021/12/27 08:06:43;;;;;;;2.40;1.30;;;2.30;99.90;;;;;;5085790;28;20718;-66
2021/12/27 08:09:10;;;;;;;1.70;1.23;;;2.30;99.90;;;;;;5084781;28;20248;-67
2021/12/27 08:11:37;;;;;;;2.60;1.53;;;2.30;99.90;;;;;;5064746;28;20210;-68
2021/12/27 08:14:05;;;;;;;1.97;1.10;;;2.40;99.90;;;;;;5079261;28;20283;-68
2021/12/27 08:16:32;;;;;;;1.80;1.40;;;2.40;99.90;;;;;;5084750;28;20261;-68
2021/12/27 08:18:59;;;;;;;2.27;1.70;;;2.40;99.90;;;;;;5084721;28;20244;-66
2021/12/27 08:21:29;;;;;;;2.03;1.70;;;2.40;99.90;;;;;;5084854;28;20204;-67
2021/12/27 08:23:55;;;;;;;1.77;1.23;;;2.40;99.90;;;;;;5084387;28;20213;-68
2021/12/27 08:26:22;;;;;;;1.93;1.17;;;2.40;99.90;;;;;;5085017;28;20266;-67
2021/12/27 08:28:51;;;;;;;1.83;1.33;;;2.40;99.90;;;;;;5084571;28;20648;-69
2021/12/27 08:31:18;;;;;;;3.90;1.73;;;2.40;99.90;;;;;;5085356;28;20273;-68
2021/12/27 08:33:45;;;;;;;2.87;1.97;;;2.40;99.90;;;;;;5085075;28;20220;-70
2021/12/27 08:36:12;;;;;;;2.30;1.23;;;2.50;99.90;;;;;;5084929;28;20239;-68
2021/12/27 08:38:40;;;;;;;1.47;1.33;;;2.50;99.90;;;;;;5083643;28;20293;-70
2021/12/27 08:41:07;;;;;;;1.77;1.30;;;2.50;99.90;;;;;;5085118;28;20278;-67
2021/12/27 08:43:34;;;;;;;16.40;8.97;;;2.60;99.90;;;;;;5084524;28;20291;-70
2021/12/27 08:46:01;;;;;;;10.47;6.93;;;2.50;99.90;;;;;;5085356;28;20300;-68
2021/12/27 08:48:28;;;;;;;5.80;3.53;;;2.50;99.90;;;;;;5084382;28;20224;-68
2021/12/27 08:50:55;;;;;;;2.97;2.03;;;2.50;99.90;;;;;;5084990;28;20698;-68
2021/12/27 08:53:22;;;;;;;5.03;2.47;;;2.50;99.90;;;;;;5083884;28;20640;-64
2021/12/27 08:55:50;;;;;;;4.70;2.03;;;2.50;99.90;;;;;;5084242;28;20632;-68
2021/12/27 08:58:17;;;;;;;4.53;2.03;;;2.50;99.90;;;;;;5083631;28;20283;-68
2021/12/27 09:00:44;;;;;;;4.60;2.13;;;2.40;99.90;;;;;;5084987;28;20197;-69
2021/12/27 09:03:12;;;;;;;2.93;1.47;;;2.50;99.90;;;;;;5084783;28;20327;-69
2021/12/27 09:05:39;;;;;;;3.37;1.97;;;2.50;99.90;;;;;;5084832;28;20284;-69
2021/12/27 09:08:06;;;;;;;3.00;1.83;;;2.50;99.90;;;;;;5084029;28;20315;-70
2021/12/27 09:10:33;;;;;;;4.03;1.70;;;2.50;99.90;;;;;;5084860;28;20200;-70
2021/12/27 09:13:01;;;;;;;3.00;2.17;;;2.60;99.90;;;;;;5083607;28;20281;-69
2021/12/27 09:15:38;;;;;;;5.60;2.57;;;2.60;99.90;;;;;;5084891;28;20250;-69
2021/12/27 09:18:05;;;;;;;8.43;3.40;;;2.70;99.90;;;;;;5084587;28;20212;-68
2021/12/27 09:20:32;;;;;;;5.23;2.80;;;2.70;99.90;;;;;;5084751;28;20215;-69
2021/12/27 09:22:59;;;;;;;7.80;3.20;;;2.70;99.90;;;;;;5083828;28;20223;-69
2021/12/27 09:25:26;;;;;;;5.20;3.07;;;2.70;99.90;;;;;;5084090;28;20240;-70
2021/12/27 09:27:53;;;;;;;7.63;3.20;;;2.60;99.90;;;;;;5083281;28;20213;-67
2021/12/27 09:30:21;;;;;;;8.10;3.80;;;2.70;99.90;;;;;;5084166;28;20228;-69
2021/12/27 09:32:50;;;;;;;9.03;3.37;;;2.70;99.90;;;;;;5083900;28;20305;-65
2021/12/27 09:35:18;;;;;;;5.77;2.60;;;2.70;99.90;;;;;;5084258;28;20197;-69
2021/12/27 09:37:45;;;;;;;5.90;2.97;;;2.70;99.90;;;;;;5082151;28;20634;-68
2021/12/27 09:40:13;;;;;;;3.73;2.40;;;2.70;99.90;;;;;;5083737;28;20297;-69
2021/12/27 09:42:40;;;;;;;4.20;1.90;;;2.70;99.90;;;;;;5083587;28;20268;-67
2021/12/27 09:45:08;;;;;;;2.40;1.60;;;2.60;99.90;;;;;;5083968;28;20289;-69
2021/12/27 09:47:37;;;;;;;4.93;2.30;;;2.60;99.90;;;;;;5084449;28;20208;-69
2021/12/27 09:50:06;;;;;;;5.87;3.83;;;2.60;99.90;;;;;;5084796;28;20315;-69
2021/12/27 09:52:34;;;;;;;6.63;2.90;;;2.60;99.90;;;;;;5084344;28;20201;-69
2021/12/27 09:55:04;;;;;;;5.03;2.30;;;2.60;99.90;;;;;;5083366;28;20284;-69
2021/12/27 09:57:33;;;;;;;3.47;2.23;;;2.70;99.90;;;;;;5083224;28;20747;-69
2021/12/27 10:00:00;;;;;;;2.37;1.70;;;2.70;99.90;;;;;;5084248;28;20232;-69
2021/12/27 10:02:27;;;;;;;2.97;2.10;;;2.70;99.90;;;;;;5084456;28;20212;-68
2021/12/27 10:04:55;;;;;;;6.90;2.47;;;2.70;99.90;;;;;;5084055;28;20228;-69
2021/12/27 10:07:23;;;;;;;4.93;1.97;;;2.80;99.90;;;;;;5086667;28;20291;-69
2021/12/27 10:09:54;;;;;;;2.43;1.67;;;2.80;99.90;;;;;;5087370;28;20205;-66
2021/12/27 10:12:23;;;;;;;4.67;2.50;;;2.80;99.90;;;;;;5087304;28;20216;-68
2021/12/27 10:14:56;;;;;;;3.20;2.33;;;2.80;99.90;;;;;;5087755;28;20197;-67
2021/12/27 10:17:23;;;;;;;3.63;1.80;;;2.80;99.90;;;;;;5087913;28;20209;-67
2021/12/27 10:19:50;;;;;;;2.80;1.53;;;2.80;99.90;;;;;;5087668;28;20675;-68
2021/12/27 10:22:18;;;;;;;2.63;1.90;;;2.90;99.90;;;;;;5087837;28;20219;-69
2021/12/27 10:24:45;;;;;;;2.33;1.37;;;3.00;99.90;;;;;;5086320;28;20248;-68
2021/12/27 10:27:13;;;;;;;2.93;1.90;;;3.00;99.90;;;;;;5087395;28;20201;-68
2021/12/27 10:29:41;;;;;;;3.47;2.13;;;3.00;99.90;;;;;;5087370;28;20292;-69
2021/12/27 10:32:10;;;;;;;2.73;1.73;;;3.00;99.90;;;;;;5087544;28;20228;-68
2021/12/27 10:34:40;;;;;;;3.63;2.33;;;3.00;99.90;;;;;;5087296;28;20643;-68
2021/12/27 10:37:14;;;;;;;2.17;1.57;;;3.10;99.90;;;;;;5087482;28;20659;-67
2021/12/27 10:39:52;;;;;;;3.03;1.57;;;3.10;99.90;;;;;;5086643;28;20307;-69
2021/12/27 10:42:21;;;;;;;2.60;1.40;;;3.10;99.90;;;;;;5086860;28;20219;-70
2021/12/27 10:44:51;;;;;;;6.03;1.90;;;3.10;99.90;;;;;;5087138;28;20251;-68
2021/12/27 10:47:30;;;;;;;2.27;1.80;;;3.20;99.90;;;;;;5087113;28;20265;-67
2021/12/27 10:50:03;;;;;;;2.90;1.73;;;3.20;99.90;;;;;;5087335;28;20200;-68
2021/12/27 10:52:59;;;;;;;5.77;2.13;;;3.20;99.90;;;;;;5087316;28;20209;-69
2021/12/27 10:55:31;;;;;;;3.70;2.40;;;3.20;99.90;;;;;;5086920;28;20285;-67
2021/12/27 10:58:27;;;;;;;2.77;2.13;;;3.30;99.90;;;;;;5086174;28;20784;-67
2021/12/27 11:00:57;;;;;;;3.33;1.70;;;3.30;99.90;;;;;;5044567;28;20727;-67
2021/12/27 11:03:27;;;;;;;2.90;1.50;;;3.30;99.90;;;;;;5044094;28;20286;-69
2021/12/27 11:05:54;;;;;;;2.60;1.60;;;3.30;99.90;;;;;;5044673;28;20221;-69
2021/12/27 11:08:21;;;;;;;19.40;8.70;;;3.30;99.90;;;;;;5043771;28;20290;-69
2021/12/27 11:10:49;;;;;;;2.47;1.70;;;3.40;99.90;;;;;;5044337;28;20304;-69
2021/12/27 11:13:16;;;;;;;16.97;8.83;;;3.40;99.90;;;;;;5043545;28;20293;-68
2021/12/27 11:15:43;;;;;;;10.00;5.87;;;3.40;99.90;;;;;;5044534;28;20262;-68
2021/12/27 11:18:12;;;;;;;4.20;2.40;;;3.40;99.90;;;;;;5043176;28;20207;-69
2021/12/27 11:20:45;;;;;;;2.70;1.87;;;3.40;99.90;;;;;;5044468;28;20241;-69
2021/12/27 11:23:14;;;;;;;3.87;2.20;;;3.40;99.90;;;;;;5043155;28;20222;-69
2021/12/27 11:25:43;;;;;;;4.27;2.90;;;3.30;99.90;;;;;;5043633;28;20214;-70
2021/12/27 11:31:08;;;;;;;5.07;2.63;;;3.30;99.90;;;;;;5143058;27;20584;-69
2021/12/27 11:33:52;;;;;;;2.43;1.77;;;3.40;99.90;;;;;;5143110;28;20298;-69
2021/12/27 11:36:20;;;;;;;5.20;2.90;;;3.40;99.90;;;;;;5143012;28;20229;-68
2021/12/27 11:38:48;;;;;;;3.63;2.43;;;3.30;99.90;;;;;;5141935;28;20241;-68
2021/12/27 11:41:32;;;;;;;10.80;5.73;;;3.30;99.90;;;;;;5142174;28;20667;-66
2021/12/27 11:44:00;;;;;;;2.97;2.37;;;3.30;99.90;;;;;;5140590;28;20213;-68
2021/12/27 11:46:30;;;;;;;3.77;2.57;;;3.30;99.90;;;;;;5142214;28;20199;-67
2021/12/27 11:48:59;;;;;;;3.97;2.57;;;3.30;99.90;;;;;;5141893;28;20224;-68
2021/12/27 11:51:32;;;;;;;3.60;2.33;;;3.30;99.90;;;;;;5141610;28;20225;-68
2021/12/27 11:54:00;;;;;;;3.00;2.20;;;3.40;99.90;;;;;;5141037;28;20538;-68
2021/12/27 11:56:49;;;;;;;2.10;1.90;;;3.40;99.90;;;;;;5142089;28;20375;-66
2021/12/27 11:59:42;;;;;;;2.77;2.13;;;3.40;99.90;;;;;;5140032;28;20201;-66
2021/12/27 12:02:27;;;;;;;5.03;1.80;;;3.30;99.90;;;;;;5138972;28;20199;-67
2021/12/27 12:04:56;;;;;;;3.07;2.23;;;3.40;99.90;;;;;;5140075;28;20262;-66
2021/12/27 12:07:50;;;;;;;3.23;2.13;;;3.40;99.90;;;;;;5141525;28;20192;-66
2021/12/27 12:10:18;;;;;;;2.20;1.90;;;3.40;99.90;;;;;;5140023;28;20218;-67
2021/12/27 12:13:18;;;;;;;5.10;2.50;;;3.40;99.90;;;;;;5140883;28;20267;-67
2021/12/27 12:16:02;;;;;;;5.37;2.30;;;3.40;99.90;;;;;;5141580;28;20199;-69
2021/12/27 12:18:32;;;;;;;1.90;1.50;;;3.40;99.90;;;;;;5140994;28;20254;-67
2021/12/27 12:21:00;;;;;;;2.20;2.00;;;3.40;99.90;;;;;;5141863;28;20294;-67
2021/12/27 12:23:27;;;;;;;4.77;1.67;;;3.40;99.90;;;;;;5140470;28;20242;-69
2021/12/27 12:26:02;;;;;;;3.77;1.70;;;3.40;99.90;;;;;;5141987;28;20309;-68
2021/12/27 12:28:29;;;;;;;3.03;2.13;;;3.40;99.90;;;;;;5140834;28;20275;-68
2021/12/27 12:30:57;;;;;;;1.63;1.53;;;3.50;99.90;;;;;;5141261;28;20337;-67
2021/12/27 12:33:26;;;;;;;3.17;1.90;;;3.50;99.90;;;;;;5138033;28;20199;-65
2021/12/27 12:35:58;;;;;;;4.10;2.20;;;3.60;99.90;;;;;;5141563;28;20275;-69
2021/12/27 12:38:28;;;;;;;5.13;2.83;;;3.70;99.90;;;;;;5141140;28;20218;-69
2021/12/27 12:41:04;;;;;;;5.50;2.63;;;3.70;99.90;;;;;;5136396;28;20208;-69
2021/12/27 12:43:33;;;;;;;4.40;2.70;;;3.80;99.90;;;;;;5127313;28;20792;-69
2021/12/27 12:46:21;;;;;;;4.30;2.60;;;3.90;99.90;;;;;;5127910;28;20267;-69
2021/12/27 12:49:02;;;;;;;3.97;2.13;;;4.00;99.90;;;;;;5127624;28;20210;-72
2021/12/27 12:51:42;;;;;;;3.17;1.97;;;4.10;99.90;;;;;;5127685;28;20191;-66
2021/12/27 12:54:22;;;;;;;2.87;2.27;;;4.10;99.90;;;;;;5126614;28;20184;-68
2021/12/27 12:56:50;;;;;;;3.63;2.23;;;4.10;99.90;;;;;;5126869;28;20227;-67
2021/12/27 12:59:22;;;;;;;4.57;2.20;;;4.20;99.90;;;;;;5127118;28;20218;-68
2021/12/27 13:02:01;;;;;;;5.77;2.63;;;4.20;99.90;;;;;;5127350;28;20214;-67
2021/12/27 13:04:43;;;;;;;3.80;2.40;;;4.10;99.90;;;;;;5127437;28;20207;-68
2021/12/27 13:07:12;;;;;;;4.23;1.90;;;4.10;99.90;;;;;;5127113;28;20259;-66
2021/12/27 13:09:41;;;;;;;3.67;2.17;;;4.10;99.90;;;;;;5126205;28;20279;-68